| time (UTC) | temp F | wind direction | speed MPH | gust MPH | rain 1hr in | rain 24hr in | rain mn in | humidity % | barometer mb |
| 20260905111006 | 68 | 32 | 5.0 | 9.0 | 0.00 | 0.00 | 0.00 | 82 | 1012.1 |
| 20260905110506 | 68 | 23 | 7.0 | 9.0 | 0.00 | 0.00 | 0.00 | 83 | 1012.1 |
| 20260905110006 | 68 | 348 | 7.0 | 9.0 | 0.00 | 0.00 | 0.00 | 82 | 1012.1 |
| 20260905105006 | 68 | 26 | 7.0 | 12.0 | 0.00 | 0.00 | 0.00 | 82 | 1012.1 |
| 20260905104505 | 68 | 15 | 7.0 | 9.0 | 0.00 | 0.00 | 0.00 | 81 | 1011.4 |
| 20260905104006 | 68 | 18 | 5.0 | 9.0 | 0.00 | 0.00 | 0.00 | 81 | 1011.1 |
| 20260905102505 | 68 | 18 | 5.0 | 12.0 | 0.00 | 0.00 | 0.00 | 81 | 1010.1 |
| 20260905102005 | 68 | 15 | 5.0 | 12.0 | 0.00 | 0.00 | 0.00 | 81 | 1010.1 |
| 20260905101506 | 69 | 27 | 5.0 | 12.0 | 0.00 | 0.00 | 0.00 | 80 | 1010.1 |
| 20260905101006 | 69 | 15 | 7.0 | 12.0 | 0.00 | 0.00 | 0.00 | 80 | 1010.1 |
| 20260905100506 | 69 | 10 | 7.0 | 9.0 | 0.00 | 0.00 | 0.00 | 80 | 1010.1 |
| 20260905094505 | 69 | 28 | 5.0 | 7.0 | 0.00 | 0.00 | 0.00 | 79 | 1010.1 |
| 20260905094007 | 69 | 35 | 4.0 | 9.0 | 0.00 | 0.00 | 0.00 | 79 | 1010.1 |
| 20260905093007 | 69 | 22 | 5.0 | 9.0 | 0.00 | 0.00 | 0.00 | 78 | 1010.1 |
| 20260905092008 | 69 | 36 | 2.0 | 7.0 | 0.00 | 0.00 | 0.00 | 78 | 1010.1 |
| 20260905091008 | 69 | 27 | 5.0 | 7.0 | 0.00 | 0.00 | 0.00 | 77 | 1010.1 |
| 20260905090508 | 69 | 57 | 5.0 | 9.0 | 0.00 | 0.00 | 0.00 | 77 | 1010.1 |
| 20260905090008 | 69 | 25 | 6.0 | 9.0 | 0.00 | 0.00 | 0.00 | 77 | 1010.1 |
| 20260905085507 | 69 | 33 | 2.0 | 5.0 | 0.00 | 0.00 | 0.00 | 77 | 1010.1 |
| 20260905085008 | 69 | 28 | 2.0 | 5.0 | 0.00 | 0.00 | 0.00 | 77 | 1010.1 |
| 20260905084008 | 69 | 43 | 5.0 | 9.0 | 0.00 | 0.00 | 0.00 | 77 | 1010.1 |
| 20260905083508 | 70 | 42 | 5.0 | 9.0 | 0.00 | 0.00 | 0.00 | 77 | 1010.1 |
| 20260905083009 | 70 | 22 | 7.0 | 12.0 | 0.00 | 0.00 | 0.00 | 77 | 1010.1 |
| 20260905082506 | 70 | 28 | 5.0 | 12.0 | 0.00 | 0.00 | 0.00 | 77 | 1010.1 |
| 20260905082008 | 70 | 15 | 3.0 | 7.0 | 0.00 | 0.00 | 0.00 | 77 | 1010.1 |
| 20260905081507 | 70 | 30 | 5.0 | 9.0 | 0.00 | 0.00 | 0.00 | 77 | 1010.1 |
| 20260905081008 | 70 | 8 | 5.0 | 9.0 | 0.00 | 0.00 | 0.00 | 76 | 1010.1 |
| 20260905080507 | 70 | 6 | 7.0 | 12.0 | 0.00 | 0.00 | 0.00 | 76 | 1010.1 |
| 20260905080007 | 70 | 21 | 7.0 | 12.0 | 0.00 | 0.00 | 0.00 | 76 | 1010.1 |
| 20260905075507 | 70 | 20 | 7.0 | 12.0 | 0.00 | 0.00 | 0.00 | 76 | 1010.1 |
| 20260905075007 | 70 | 15 | 7.0 | 12.0 | 0.00 | 0.00 | 0.00 | 76 | 1010.1 |
| 20260905074507 | 70 | 26 | 5.0 | 12.0 | 0.00 | 0.00 | 0.00 | 76 | 1010.1 |
| 20260905073507 | 70 | 343 | 5.0 | 9.0 | 0.00 | 0.00 | 0.00 | 76 | 1010.1 |
| 20260905072008 | 71 | 17 | 5.0 | 9.0 | 0.00 | 0.00 | 0.00 | 75 | 1010.1 |
| 20260905071507 | 70 | 49 | 2.0 | 5.0 | 0.00 | 0.00 | 0.00 | 75 | 1010.1 |
| 20260905071008 | 71 | 42 | 2.0 | 5.0 | 0.00 | 0.00 | 0.00 | 74 | 1010.1 |
| 20260905070508 | 71 | 60 | 2.0 | 5.0 | 0.00 | 0.00 | 0.00 | 75 | 1010.1 |
| 20260905065507 | 71 | 36 | 0.0 | 5.0 | 0.00 | 0.00 | 0.00 | 75 | 1010.6 |
| 20260905065008 | 71 | 47 | 2.0 | 5.0 | 0.00 | 0.00 | 0.00 | 75 | 1010.2 |
| 20260905064507 | 71 | 47 | 2.0 | 5.0 | 0.00 | 0.00 | 0.00 | 74 | 1010.4 |
| 20260905063510 | 71 | 43 | 2.0 | 5.0 | 0.00 | 0.00 | 0.00 | 74 | 1011.1 |
| 20260905063008 | 71 | 39 | 0.0 | 5.0 | 0.00 | 0.00 | 0.00 | 74 | 1010.2 |
| 20260905062507 | 71 | 47 | 2.0 | 5.0 | 0.00 | 0.00 | 0.00 | 74 | 1011.1 |
| 20260905062008 | 71 | 37 | 2.0 | 5.0 | 0.00 | 0.00 | 0.00 | 74 | 1010.6 |
| 20260905061507 | 71 | 49 | 2.0 | 5.0 | 0.00 | 0.00 | 0.00 | 74 | 1011.1 |
| 20260905061008 | 71 | 44 | 2.0 | 5.0 | 0.00 | 0.00 | 0.00 | 74 | 1011.1 |
| 20260905060507 | 71 | 53 | 2.0 | 5.0 | 0.00 | 0.00 | 0.00 | 74 | 1011.1 |
| 20260905060007 | 71 | 51 | 2.0 | 5.0 | 0.00 | 0.00 | 0.00 | 74 | 1011.1 |
| 20260905055507 | 71 | 55 | 4.0 | 7.0 | 0.00 | 0.00 | 0.00 | 74 | 1011.1 |
| 20260905055008 | 71 | 49 | 4.0 | 7.0 | 0.00 | 0.00 | 0.00 | 75 | 1011.1 |
| 20260905054507 | 71 | 51 | 4.0 | 7.0 | 0.00 | 0.00 | 0.00 | 75 | 1011.1 |
| 20260905054007 | 71 | 41 | 5.0 | 7.0 | 0.00 | 0.00 | 0.00 | 74 | 1011.1 |
| 20260905053507 | 71 | 56 | 5.0 | 7.0 | 0.00 | 0.00 | 0.00 | 74 | 1011.1 |
| 20260905053007 | 71 | 44 | 5.0 | 7.0 | 0.00 | 0.00 | 0.00 | 74 | 1011.1 |
| 20260905052507 | 71 | 56 | 5.0 | 5.0 | 0.00 | 0.00 | 0.00 | 75 | 1011.1 |
| 20260905051507 | 71 | 59 | 5.0 | 9.0 | 0.00 | 0.00 | 0.00 | 75 | 1011.1 |
| 20260905051007 | 71 | 47 | 6.0 | 9.0 | 0.00 | 0.00 | 0.00 | 74 | 1011.1 |
| 20260905050508 | 71 | 54 | 7.0 | 9.0 | 0.00 | 0.00 | 0.00 | 75 | 1011.1 |
| 20260905050007 | 71 | 51 | 7.0 | 9.0 | 0.00 | 0.00 | 0.00 | 76 | 1011.1 |
| 20260905045507 | 71 | 40 | 5.0 | 7.0 | 0.00 | 0.00 | 0.00 | 76 | 1011.1 |
| 20260905045007 | 71 | 58 | 5.0 | 7.0 | 0.00 | 0.00 | 0.00 | 76 | 1011.1 |
| 20260905044507 | 71 | 42 | 5.0 | 7.0 | 0.00 | 0.00 | 0.00 | 76 | 1011.1 |
| 20260905044007 | 71 | 21 | 5.0 | 7.0 | 0.00 | 0.00 | 0.00 | 77 | 1011.1 |
| 20260905043008 | 71 | 42 | 5.0 | 7.0 | 0.00 | 0.00 | 0.00 | 76 | 1011.1 |
| 20260905042507 | 71 | 46 | 5.0 | 7.0 | 0.00 | 0.00 | 0.00 | 77 | 1011.1 |
| 20260905042008 | 71 | 45 | 5.0 | 7.0 | 0.00 | 0.00 | 0.00 | 78 | 1011.5 |
| 20260905040507 | 69 | 285 | 0.0 | 5.0 | 0.00 | 0.00 | 0.00 | 85 | 1011.1 |
| 20260905040006 | 68 | 280 | 1.0 | 5.0 | 0.00 | 0.00 | 0.00 | 84 | 1011.1 |
| 20260905035507 | 68 | 267 | 5.0 | 5.0 | 0.00 | 0.00 | 0.00 | 83 | 1011.1 |
| 20260905035007 | 68 | 273 | 5.0 | 5.0 | 0.00 | 0.00 | 0.00 | 83 | 1011.1 |
| 20260905034507 | 68 | 277 | 5.0 | 5.0 | 0.00 | 0.00 | 0.00 | 83 | 1011.1 |
| 20260905033507 | 69 | 287 | 5.0 | 7.0 | 0.00 | 0.00 | 0.00 | 81 | 1011.1 |
| 20260905033007 | 69 | 264 | 5.0 | 7.0 | 0.00 | 0.00 | 0.00 | 81 | 1011.1 |
| 20260905032506 | 69 | 278 | 5.0 | 7.0 | 0.00 | 0.00 | 0.00 | 80 | 1010.6 |
| 20260905032007 | 69 | 271 | 5.0 | 7.0 | 0.00 | 0.00 | 0.00 | 80 | 1010.1 |
| 20260905031507 | 69 | 263 | 7.0 | 7.0 | 0.00 | 0.00 | 0.00 | 79 | 1010.2 |
| 20260905031007 | 69 | 264 | 5.0 | 7.0 | 0.00 | 0.00 | 0.00 | 79 | 1010.1 |
| 20260905030507 | 69 | 266 | 6.0 | 7.0 | 0.00 | 0.00 | 0.00 | 79 | 1010.1 |
| 20260905025507 | 70 | 282 | 5.0 | 7.0 | 0.00 | 0.00 | 0.00 | 78 | 1010.1 |
| 20260905025008 | 70 | 276 | 5.0 | 7.0 | 0.00 | 0.00 | 0.00 | 77 | 1010.1 |
| 20260905024506 | 70 | 271 | 5.0 | 7.0 | 0.00 | 0.00 | 0.00 | 77 | 1010.1 |
| 20260905024007 | 70 | 278 | 5.0 | 7.0 | 0.00 | 0.00 | 0.00 | 76 | 1010.1 |
| 20260905023507 | 70 | 275 | 7.0 | 7.0 | 0.00 | 0.00 | 0.00 | 76 | 1010.1 |
| 20260905023008 | 70 | 271 | 6.0 | 7.0 | 0.00 | 0.00 | 0.00 | 76 | 1010.6 |
| 20260905022507 | 70 | 277 | 5.0 | 7.0 | 0.00 | 0.00 | 0.00 | 75 | 1010.5 |
| 20260905022007 | 70 | 279 | 5.0 | 7.0 | 0.00 | 0.00 | 0.00 | 75 | 1010.1 |
| 20260905021507 | 71 | 283 | 7.0 | 7.0 | 0.00 | 0.00 | 0.00 | 74 | 1010.2 |
| 20260905021008 | 71 | 275 | 7.0 | 7.0 | 0.00 | 0.00 | 0.00 | 74 | 1010.1 |
| 20260905020507 | 71 | 276 | 7.0 | 9.0 | 0.00 | 0.00 | 0.00 | 74 | 1010.1 |
| 20260905020007 | 71 | 279 | 7.0 | 9.0 | 0.00 | 0.00 | 0.00 | 74 | 1010.6 |
| 20260905015507 | 71 | 275 | 7.0 | 7.0 | 0.00 | 0.00 | 0.00 | 73 | 1010.1 |
| 20260905015007 | 71 | 272 | 5.0 | 7.0 | 0.00 | 0.00 | 0.00 | 73 | 1010.1 |
| 20260905014007 | 71 | 275 | 5.0 | 7.0 | 0.00 | 0.00 | 0.00 | 73 | 1011.1 |
| 20260905013507 | 71 | 281 | 5.0 | 7.0 | 0.00 | 0.00 | 0.00 | 73 | 1011.1 |
| 20260905013007 | 71 | 274 | 5.0 | 7.0 | 0.00 | 0.00 | 0.00 | 73 | 1010.2 |
| 20260905012506 | 71 | 272 | 5.0 | 7.0 | 0.00 | 0.00 | 0.00 | 73 | 1010.1 |
| 20260905012007 | 71 | 282 | 5.0 | 7.0 | 0.00 | 0.00 | 0.00 | 72 | 1010.6 |
| 20260905011507 | 71 | 272 | 6.0 | 7.0 | 0.00 | 0.00 | 0.00 | 72 | 1010.1 |
| 20260905011007 | 71 | 267 | 5.0 | 7.0 | 0.00 | 0.00 | 0.00 | 72 | 1010.1 |
| 20260905010507 | 72 | 269 | 6.0 | 7.0 | 0.00 | 0.00 | 0.00 | 72 | 1010.1 |
| 20260905005508 | 72 | 266 | 7.0 | 9.0 | 0.00 | 0.00 | 0.00 | 71 | 1010.1 |
| 20260905005007 | 72 | 263 | 7.0 | 7.0 | 0.00 | 0.00 | 0.00 | 71 | 1010.1 |
| 20260905004507 | 72 | 270 | 5.0 | 7.0 | 0.00 | 0.00 | 0.00 | 72 | 1010.1 |
| 20260905004007 | 72 | 274 | 5.0 | 7.0 | 0.00 | 0.00 | 0.00 | 72 | 1010.1 |
| 20260905003507 | 72 | 267 | 7.0 | 9.0 | 0.00 | 0.00 | 0.00 | 71 | 1010.1 |
| 20260905002507 | 72 | 274 | 7.0 | 9.0 | 0.00 | 0.00 | 0.00 | 70 | 1010.1 |
| 20260905002007 | 72 | 273 | 7.0 | 9.0 | 0.00 | 0.00 | 0.00 | 70 | 1010.1 |
| 20260905001506 | 72 | 273 | 7.0 | 9.0 | 0.00 | 0.00 | 0.00 | 70 | 1010.1 |
| 20260905000507 | 72 | 276 | 7.0 | 7.0 | 0.00 | 0.00 | 0.00 | 70 | 1010.1 |
| 20260905000007 | 73 | 280 | 5.0 | 7.0 | 0.00 | 0.00 | 0.00 | 70 | 1010.1 |
| 20260904235506 | 73 | 290 | 5.0 | 7.0 | 0.00 | 0.00 | 0.00 | 71 | 1010.1 |
| 20260904235007 | 73 | 264 | 5.0 | 7.0 | 0.00 | 0.00 | 0.00 | 71 | 1010.1 |
| 20260904234507 | 73 | 281 | 5.0 | 7.0 | 0.00 | 0.00 | 0.00 | 70 | 1010.1 |
| 20260904234007 | 73 | 266 | 5.0 | 7.0 | 0.00 | 0.00 | 0.00 | 69 | 1010.1 |
| 20260904233507 | 73 | 276 | 5.0 | 7.0 | 0.00 | 0.00 | 0.00 | 69 | 1010.1 |
| 20260904233007 | 73 | 283 | 5.0 | 5.0 | 0.00 | 0.00 | 0.00 | 69 | 1010.1 |
| 20260904232507 | 73 | 288 | 5.0 | 5.0 | 0.00 | 0.00 | 0.00 | 68 | 1010.1 |
| 20260904232007 | 73 | 278 | 5.0 | 7.0 | 0.00 | 0.00 | 0.00 | 68 | 1010.1 |
| 20260904231506 | 73 | 281 | 5.0 | 7.0 | 0.00 | 0.00 | 0.00 | 67 | 1010.1 |
| 20260904231007 | 74 | 280 | 5.0 | 7.0 | 0.00 | 0.00 | 0.00 | 67 | 1010.1 |
| 20260904230507 | 74 | 265 | 5.0 | 7.0 | 0.00 | 0.00 | 0.00 | 67 | 1010.1 |
| 20260904230006 | 74 | 271 | 5.0 | 7.0 | 0.00 | 0.00 | 0.00 | 65 | 1010.1 |
| 20260904225506 | 74 | 278 | 5.0 | 7.0 | 0.00 | 0.00 | 0.00 | 65 | 1010.1 |
| 20260904224506 | 75 | 285 | 5.0 | 7.0 | 0.00 | 0.00 | 0.00 | 64 | 1010.1 |
| 20260904224007 | 75 | 264 | 5.0 | 7.0 | 0.00 | 0.00 | 0.00 | 63 | 1009.6 |
| 20260904223507 | 75 | 274 | 7.0 | 7.0 | 0.00 | 0.00 | 0.00 | 63 | 1009.1 |
| 20260904223007 | 75 | 272 | 5.0 | 7.0 | 0.00 | 0.00 | 0.00 | 63 | 1009.1 |
| 20260904222507 | 75 | 269 | 5.0 | 7.0 | 0.00 | 0.00 | 0.00 | 62 | 1009.1 |
| 20260904222007 | 75 | 284 | 5.0 | 7.0 | 0.00 | 0.00 | 0.00 | 62 | 1009.1 |
| 20260904221507 | 75 | 293 | 5.0 | 7.0 | 0.00 | 0.00 | 0.00 | 63 | 1009.8 |
| 20260904221007 | 75 | 279 | 5.0 | 7.0 | 0.00 | 0.00 | 0.00 | 62 | 1009.1 |
| 20260904220506 | 75 | 279 | 5.0 | 7.0 | 0.00 | 0.00 | 0.00 | 62 | 1009.6 |
| 20260904220006 | 75 | 284 | 5.0 | 9.0 | 0.00 | 0.00 | 0.00 | 61 | 1009.1 |
| 20260904215506 | 75 | 305 | 5.0 | 9.0 | 0.00 | 0.00 | 0.00 | 62 | 1009.6 |
| 20260904215007 | 76 | 296 | 5.0 | 7.0 | 0.00 | 0.00 | 0.00 | 63 | 1009.1 |
| 20260904214506 | 76 | 294 | 5.0 | 7.0 | 0.00 | 0.00 | 0.00 | 63 | 1009.8 |
| 20260904214006 | 76 | 266 | 5.0 | 7.0 | 0.00 | 0.00 | 0.00 | 63 | 1009.1 |
| 20260904213507 | 76 | 269 | 5.0 | 7.0 | 0.00 | 0.00 | 0.00 | 62 | 1009.6 |
| 20260904213006 | 76 | 275 | 5.0 | 7.0 | 0.00 | 0.00 | 0.00 | 62 | 1010.1 |
| 20260904212506 | 76 | 283 | 5.0 | 7.0 | 0.00 | 0.00 | 0.00 | 61 | 1010.1 |
| 20260904212006 | 76 | 278 | 5.0 | 9.0 | 0.00 | 0.00 | 0.00 | 61 | 1010.1 |
| 20260904211506 | 76 | 282 | 5.0 | 9.0 | 0.00 | 0.00 | 0.00 | 61 | 1010.1 |
| 20260904211007 | 76 | 282 | 5.0 | 7.0 | 0.00 | 0.00 | 0.00 | 61 | 1010.1 |
| 20260904210507 | 77 | 284 | 5.0 | 7.0 | 0.00 | 0.00 | 0.00 | 60 | 1010.1 |
| 20260904210006 | 77 | 300 | 5.0 | 7.0 | 0.00 | 0.00 | 0.00 | 60 | 1010.1 |
| 20260904205506 | 77 | 297 | 5.0 | 7.0 | 0.00 | 0.00 | 0.00 | 60 | 1010.1 |
| 20260904205007 | 77 | 282 | 5.0 | 9.0 | 0.00 | 0.00 | 0.00 | 60 | 1010.1 |
| 20260904204506 | 77 | 288 | 5.0 | 9.0 | 0.00 | 0.00 | 0.00 | 60 | 1010.1 |
| 20260904204006 | 77 | 283 | 5.0 | 9.0 | 0.00 | 0.00 | 0.00 | 59 | 1010.1 |
| 20260904203006 | 77 | 292 | 7.0 | 9.0 | 0.00 | 0.00 | 0.00 | 59 | 1010.1 |
| 20260904202506 | 77 | 288 | 5.0 | 9.0 | 0.00 | 0.00 | 0.00 | 59 | 1010.1 |
| 20260904202007 | 78 | 288 | 5.0 | 7.0 | 0.00 | 0.00 | 0.00 | 58 | 1010.1 |
| 20260904201507 | 78 | 292 | 5.0 | 9.0 | 0.00 | 0.00 | 0.00 | 57 | 1010.1 |
| 20260904201006 | 79 | 355 | 5.0 | 9.0 | 0.00 | 0.00 | 0.00 | 57 | 1010.1 |
| 20260904200507 | 79 | 293 | 5.0 | 9.0 | 0.00 | 0.00 | 0.00 | 57 | 1010.1 |
| 20260904200006 | 79 | 288 | 3.0 | 9.0 | 0.00 | 0.00 | 0.00 | 59 | 1010.1 |
| 20260904195506 | 79 | 286 | 5.0 | 9.0 | 0.00 | 0.00 | 0.00 | 59 | 1010.1 |
| 20260904195007 | 79 | 308 | 5.0 | 9.0 | 0.00 | 0.00 | 0.00 | 59 | 1010.1 |
| 20260904194507 | 79 | 277 | 4.0 | 9.0 | 0.00 | 0.00 | 0.00 | 59 | 1010.1 |
| 20260904194007 | 80 | 293 | 3.0 | 9.0 | 0.00 | 0.00 | 0.00 | 59 | 1010.1 |
| 20260904193507 | 80 | 304 | 2.0 | 9.0 | 0.00 | 0.00 | 0.00 | 60 | 1010.1 |
| 20260904193007 | 79 | 318 | 2.0 | 9.0 | 0.00 | 0.00 | 0.00 | 60 | 1010.1 |
| 20260904192006 | 79 | 278 | 5.0 | 7.0 | 0.00 | 0.00 | 0.00 | 60 | 1010.1 |
| 20260904191506 | 79 | 320 | 5.0 | 7.0 | 0.00 | 0.00 | 0.00 | 61 | 1010.1 |
| 20260904190506 | 79 | 331 | 2.0 | 7.0 | 0.00 | 0.00 | 0.00 | 62 | 1010.1 |
| 20260904190006 | 79 | 344 | 2.0 | 7.0 | 0.00 | 0.00 | 0.00 | 63 | 1010.1 |
| 20260904185506 | 79 | 344 | 2.0 | 9.0 | 0.00 | 0.00 | 0.00 | 63 | 1010.1 |
| 20260904185006 | 78 | 344 | 3.0 | 9.0 | 0.00 | 0.00 | 0.00 | 67 | 1010.1 |
| 20260904184006 | 77 | 331 | 2.0 | 9.0 | 0.00 | 0.00 | 0.00 | 68 | 1010.1 |
| 20260904183507 | 77 | 311 | 2.0 | 9.0 | 0.00 | 0.00 | 0.00 | 69 | 1010.1 |
| 20260904182506 | 77 | 300 | 5.0 | 7.0 | 0.00 | 0.00 | 0.00 | 68 | 1010.1 |
| 20260904182007 | 78 | 302 | 2.0 | 12.0 | 0.00 | 0.00 | 0.00 | 67 | 1010.1 |
| 20260904181506 | 78 | 313 | 7.0 | 12.0 | 0.00 | 0.00 | 0.00 | 62 | 1010.1 |
| 20260904181006 | 78 | 285 | 7.0 | 12.0 | 0.00 | 0.00 | 0.00 | 62 | 1010.5 |
| 20260904180507 | 77 | 290 | 7.0 | 12.0 | 0.00 | 0.00 | 0.00 | 62 | 1010.1 |
| 20260904180006 | 77 | 282 | 7.0 | 12.0 | 0.00 | 0.00 | 0.00 | 62 | 1010.2 |
| 20260904175506 | 77 | 286 | 9.0 | 9.0 | 0.00 | 0.00 | 0.00 | 62 | 1011.1 |
| 20260904175006 | 78 | 281 | 7.0 | 12.0 | 0.00 | 0.00 | 0.00 | 63 | 1011.1 |
| 20260904174506 | 77 | 280 | 7.0 | 12.0 | 0.00 | 0.00 | 0.00 | 62 | 1011.1 |
| 20260904174006 | 77 | 271 | 7.0 | 12.0 | 0.00 | 0.00 | 0.00 | 63 | 1011.1 |
| 20260904173506 | 77 | 287 | 7.0 | 12.0 | 0.00 | 0.00 | 0.00 | 64 | 1011.1 |
| 20260904173006 | 77 | 264 | 7.0 | 12.0 | 0.00 | 0.00 | 0.00 | 63 | 1011.1 |
| 20260904172506 | 77 | 267 | 9.0 | 14.0 | 0.00 | 0.00 | 0.00 | 63 | 1011.6 |
| 20260904172006 | 77 | 284 | 9.0 | 14.0 | 0.00 | 0.00 | 0.00 | 63 | 1011.1 |
| 20260904171006 | 77 | 269 | 7.0 | 12.0 | 0.00 | 0.00 | 0.00 | 64 | 1012.1 |
| 20260904170506 | 77 | 258 | 9.0 | 12.0 | 0.00 | 0.00 | 0.00 | 64 | 1012.1 |
| 20260904170006 | 77 | 263 | 7.0 | 9.0 | 0.00 | 0.00 | 0.00 | 65 | 1012.1 |
| 20260904165506 | 77 | 276 | 5.0 | 9.0 | 0.00 | 0.00 | 0.00 | 67 | 1012.1 |
| 20260904165007 | 77 | 16 | 3.0 | 7.0 | 0.00 | 0.00 | 0.00 | 69 | 1012.1 |
| 20260904164505 | 77 | 359 | 2.0 | 7.0 | 0.00 | 0.00 | 0.00 | 69 | 1012.1 |
| 20260904164006 | 76 | 24 | 2.0 | 5.0 | 0.00 | 0.00 | 0.00 | 71 | 1012.1 |
| 20260904163006 | 75 | 329 | 2.0 | 5.0 | 0.00 | 0.00 | 0.00 | 70 | 1012.1 |
| 20260904162506 | 76 | 57 | 0.0 | 5.0 | 0.00 | 0.00 | 0.00 | 71 | 1012.1 |
| 20260904162007 | 75 | 318 | 2.0 | 7.0 | 0.00 | 0.00 | 0.00 | 70 | 1012.1 |
| 20260904161006 | 75 | 15 | 2.0 | 7.0 | 0.00 | 0.00 | 0.00 | 69 | 1012.1 |
| 20260904160006 | 75 | 14 | 2.0 | 5.0 | 0.00 | 0.00 | 0.00 | 69 | 1012.1 |
| 20260904155506 | 75 | 343 | 2.0 | 5.0 | 0.00 | 0.00 | 0.00 | 68 | 1012.1 |
| 20260904155006 | 75 | 13 | 2.0 | 5.0 | 0.00 | 0.00 | 0.00 | 69 | 1012.1 |
| 20260904154506 | 75 | 43 | 2.0 | 5.0 | 0.00 | 0.00 | 0.00 | 69 | 1012.1 |
| 20260904153506 | 75 | 13 | 0.0 | 7.0 | 0.00 | 0.00 | 0.00 | 71 | 1012.1 |
| 20260904152506 | 75 | 320 | 2.0 | 5.0 | 0.00 | 0.00 | 0.00 | 72 | 1012.1 |
| 20260904152006 | 74 | 6 | 2.0 | 9.0 | 0.00 | 0.00 | 0.00 | 73 | 1012.1 |
| 20260904151505 | 74 | 324 | 4.0 | 9.0 | 0.00 | 0.00 | 0.00 | 73 | 1012.1 |
| 20260904151006 | 74 | 12 | 2.0 | 9.0 | 0.00 | 0.00 | 0.00 | 73 | 1012.1 |
| 20260904150007 | 74 | 11 | 2.0 | 5.0 | 0.00 | 0.00 | 0.00 | 73 | 1012.1 |
| 20260904145507 | 74 | 353 | 5.0 | 5.0 | 0.00 | 0.00 | 0.00 | 74 | 1012.1 |
| 20260904145007 | 74 | 346 | 2.0 | 5.0 | 0.00 | 0.00 | 0.00 | 75 | 1012.1 |
| 20260904143506 | 73 | 39 | 2.0 | 5.0 | 0.00 | 0.00 | 0.00 | 79 | 1012.1 |
| 20260904143006 | 73 | 351 | 2.0 | 5.0 | 0.00 | 0.00 | 0.00 | 80 | 1012.1 |
| 20260904142505 | 73 | 50 | 2.0 | 7.0 | 0.00 | 0.00 | 0.00 | 81 | 1012.1 |
| 20260904142006 | 73 | 337 | 2.0 | 7.0 | 0.00 | 0.00 | 0.00 | 81 | 1012.1 |
| 20260904141506 | 73 | 336 | 2.0 | 5.0 | 0.00 | 0.00 | 0.00 | 81 | 1012.1 |
| 20260904140506 | 73 | 17 | 2.0 | 5.0 | 0.00 | 0.00 | 0.00 | 80 | 1012.1 |
| 20260904140006 | 73 | 4 | 2.0 | 5.0 | 0.00 | 0.00 | 0.00 | 82 | 1012.1 |
| 20260904135506 | 73 | 273 | 0.0 | 5.0 | 0.00 | 0.00 | 0.00 | 83 | 1012.1 |
| 20260904135006 | 72 | 329 | 1.0 | 5.0 | 0.00 | 0.00 | 0.00 | 85 | 1012.1 |
| 20260904134506 | 71 | 305 | 2.0 | 5.0 | 0.00 | 0.00 | 0.00 | 85 | 1012.1 |
| 20260904134006 | 71 | 277 | 3.0 | 5.0 | 0.00 | 0.00 | 0.00 | 86 | 1012.1 |
| 20260904133006 | 71 | 264 | 5.0 | 7.0 | 0.00 | 0.00 | 0.00 | 87 | 1012.1 |
| 20260904131006 | 70 | 270 | 7.0 | 9.0 | 0.00 | 0.00 | 0.00 | 87 | 1012.1 |
| 20260904130506 | 70 | 265 | 6.0 | 9.0 | 0.00 | 0.00 | 0.00 | 87 | 1012.1 |
| 20260904130006 | 69 | 286 | 5.0 | 7.0 | 0.00 | 0.00 | 0.00 | 88 | 1012.6 |
| 20260904125505 | 69 | 301 | 6.0 | 7.0 | 0.00 | 0.00 | 0.00 | 88 | 1012.1 |
| 20260904125005 | 69 | 281 | 5.0 | 7.0 | 0.00 | 0.00 | 0.00 | 89 | 1012.1 |
| 20260904124506 | 69 | 275 | 5.0 | 7.0 | 0.00 | 0.00 | 0.00 | 89 | 1012.1 |
| 20260904124007 | 69 | 271 | 5.0 | 7.0 | 0.00 | 0.00 | 0.00 | 89 | 1012.1 |
| 20260904123006 | 68 | 253 | 5.0 | 7.0 | 0.00 | 0.00 | 0.00 | 89 | 1012.1 |
| 20260904122506 | 68 | 252 | 5.0 | 9.0 | 0.00 | 0.00 | 0.00 | 89 | 1012.1 |
| 20260904122006 | 68 | 257 | 7.0 | 9.0 | 0.00 | 0.00 | 0.00 | 89 | 1012.1 |
| 20260904121505 | 67 | 246 | 5.0 | 7.0 | 0.00 | 0.00 | 0.00 | 89 | 1012.1 |
| 20260904121006 | 68 | 250 | 5.0 | 7.0 | 0.00 | 0.00 | 0.00 | 90 | 1012.1 |
| 20260904120507 | 68 | 241 | 5.0 | 7.0 | 0.00 | 0.00 | 0.00 | 90 | 1012.1 |
| 20260904120005 | 67 | 258 | 5.0 | 7.0 | 0.00 | 0.00 | 0.00 | 90 | 1012.1 |
| 20260904115006 | 67 | 250 | 5.0 | 7.0 | 0.00 | 0.00 | 0.00 | 91 | 1012.1 |
| 20260904114505 | 66 | 249 | 5.0 | 7.0 | 0.00 | 0.00 | 0.00 | 91 | 1012.1 |
| 20260904114005 | 66 | 260 | 5.0 | 7.0 | 0.00 | 0.00 | 0.00 | 91 | 1012.1 |
| 20260904113508 | 66 | 262 | 5.0 | 7.0 | 0.00 | 0.00 | 0.00 | 91 | 1012.1 |
| 20260904113006 | 66 | 258 | 7.0 | 7.0 | 0.00 | 0.00 | 0.00 | 91 | 1012.1 |
| 20260904112506 | 66 | 250 | 5.0 | 7.0 | 0.00 | 0.00 | 0.00 | 91 | 1012.6 |
| 20260904111506 | 66 | 259 | 5.0 | 7.0 | 0.00 | 0.00 | 0.00 | 91 | 1012.1 |